sensor_id;sensor_type;location;lat;lon;timestamp;P1;durP1;ratioP1;P2;durP2;ratioP2
7398;SDS011;3740;50.700;7.184;2023-02-15T00:01:51;32.40;;;27.30;;
7398;SDS011;3740;50.700;7.184;2023-02-15T00:04:22;30.67;;;26.57;;
7398;SDS011;3740;50.700;7.184;2023-02-15T00:06:49;29.57;;;25.80;;
7398;SDS011;3740;50.700;7.184;2023-02-15T00:09:15;32.47;;;27.17;;
7398;SDS011;3740;50.700;7.184;2023-02-15T00:11:41;31.50;;;26.60;;
7398;SDS011;3740;50.700;7.184;2023-02-15T00:14:24;31.67;;;27.80;;
7398;SDS011;3740;50.700;7.184;2023-02-15T00:16:50;31.77;;;26.57;;
7398;SDS011;3740;50.700;7.184;2023-02-15T00:19:18;29.73;;;26.37;;
7398;SDS011;3740;50.700;7.184;2023-02-15T00:21:44;32.07;;;26.97;;
7398;SDS011;3740;50.700;7.184;2023-02-15T00:24:12;32.00;;;27.13;;
7398;SDS011;3740;50.700;7.184;2023-02-15T00:26:39;32.20;;;27.57;;
7398;SDS011;3740;50.700;7.184;2023-02-15T00:29:06;32.83;;;28.50;;
7398;SDS011;3740;50.700;7.184;2023-02-15T00:31:32;35.13;;;29.30;;
7398;SDS011;3740;50.700;7.184;2023-02-15T00:34:11;34.10;;;28.63;;
7398;SDS011;3740;50.700;7.184;2023-02-15T00:36:44;28.90;;;25.87;;
7398;SDS011;3740;50.700;7.184;2023-02-15T00:39:11;29.50;;;26.10;;
7398;SDS011;3740;50.700;7.184;2023-02-15T00:41:37;31.93;;;27.10;;
7398;SDS011;3740;50.700;7.184;2023-02-15T00:44:03;29.73;;;25.40;;
7398;SDS011;3740;50.700;7.184;2023-02-15T00:46:29;31.43;;;26.20;;
7398;SDS011;3740;50.700;7.184;2023-02-15T00:48:54;30.17;;;26.37;;
7398;SDS011;3740;50.700;7.184;2023-02-15T00:51:20;28.90;;;24.83;;
7398;SDS011;3740;50.700;7.184;2023-02-15T00:53:45;28.00;;;24.63;;
7398;SDS011;3740;50.700;7.184;2023-02-15T00:56:11;32.10;;;27.70;;
7398;SDS011;3740;50.700;7.184;2023-02-15T00:58:37;33.67;;;26.37;;
7398;SDS011;3740;50.700;7.184;2023-02-15T01:01:04;32.60;;;28.03;;
7398;SDS011;3740;50.700;7.184;2023-02-15T01:03:31;29.77;;;25.50;;
7398;SDS011;3740;50.700;7.184;2023-02-15T01:05:57;33.23;;;27.77;;
7398;SDS011;3740;50.700;7.184;2023-02-15T01:08:22;31.53;;;26.63;;
7398;SDS011;3740;50.700;7.184;2023-02-15T01:10:48;29.83;;;26.50;;
7398;SDS011;3740;50.700;7.184;2023-02-15T01:13:14;33.80;;;28.17;;
7398;SDS011;3740;50.700;7.184;2023-02-15T01:15:41;30.77;;;26.43;;
7398;SDS011;3740;50.700;7.184;2023-02-15T01:18:07;32.90;;;26.80;;
7398;SDS011;3740;50.700;7.184;2023-02-15T01:20:35;28.87;;;25.57;;
7398;SDS011;3740;50.700;7.184;2023-02-15T01:23:04;31.83;;;26.70;;
7398;SDS011;3740;50.700;7.184;2023-02-15T01:25:32;31.90;;;26.87;;
7398;SDS011;3740;50.700;7.184;2023-02-15T01:27:59;30.87;;;26.40;;
7398;SDS011;3740;50.700;7.184;2023-02-15T01:30:24;30.00;;;26.40;;
7398;SDS011;3740;50.700;7.184;2023-02-15T01:32:50;29.43;;;24.07;;
7398;SDS011;3740;50.700;7.184;2023-02-15T01:35:15;28.83;;;24.30;;
7398;SDS011;3740;50.700;7.184;2023-02-15T01:37:41;28.50;;;23.97;;
7398;SDS011;3740;50.700;7.184;2023-02-15T01:40:10;29.37;;;25.90;;
7398;SDS011;3740;50.700;7.184;2023-02-15T01:42:38;28.40;;;24.27;;
7398;SDS011;3740;50.700;7.184;2023-02-15T01:45:05;30.23;;;24.50;;
7398;SDS011;3740;50.700;7.184;2023-02-15T01:48:01;29.03;;;24.43;;
7398;SDS011;3740;50.700;7.184;2023-02-15T01:50:47;32.37;;;26.90;;
7398;SDS011;3740;50.700;7.184;2023-02-15T01:55:54;33.57;;;28.13;;
7398;SDS011;3740;50.700;7.184;2023-02-15T01:58:22;33.33;;;26.73;;
7398;SDS011;3740;50.700;7.184;2023-02-15T02:00:50;32.30;;;27.30;;
7398;SDS011;3740;50.700;7.184;2023-02-15T02:03:17;35.57;;;28.40;;
7398;SDS011;3740;50.700;7.184;2023-02-15T02:05:50;34.90;;;28.70;;
7398;SDS011;3740;50.700;7.184;2023-02-15T02:08:16;35.20;;;28.90;;
7398;SDS011;3740;50.700;7.184;2023-02-15T02:10:42;35.23;;;28.87;;
7398;SDS011;3740;50.700;7.184;2023-02-15T02:13:08;31.57;;;27.03;;
7398;SDS011;3740;50.700;7.184;2023-02-15T02:15:51;32.83;;;28.20;;
7398;SDS011;3740;50.700;7.184;2023-02-15T02:18:26;32.10;;;26.90;;
7398;SDS011;3740;50.700;7.184;2023-02-15T02:24:23;33.00;;;28.57;;
7398;SDS011;3740;50.700;7.184;2023-02-15T02:32:45;36.10;;;28.30;;
7398;SDS011;3740;50.700;7.184;2023-02-15T02:35:15;34.33;;;28.40;;
7398;SDS011;3740;50.700;7.184;2023-02-15T02:43:29;34.50;;;29.03;;
7398;SDS011;3740;50.700;7.184;2023-02-15T02:46:13;33.70;;;28.23;;
7398;SDS011;3740;50.700;7.184;2023-02-15T02:48:45;34.27;;;28.70;;
7398;SDS011;3740;50.700;7.184;2023-02-15T02:51:13;36.57;;;29.43;;
7398;SDS011;3740;50.700;7.184;2023-02-15T02:53:45;36.23;;;30.03;;
7398;SDS011;3740;50.700;7.184;2023-02-15T02:56:14;36.93;;;30.00;;
7398;SDS011;3740;50.700;7.184;2023-02-15T02:58:50;34.40;;;28.23;;
7398;SDS011;3740;50.700;7.184;2023-02-15T03:01:39;33.80;;;28.13;;
7398;SDS011;3740;50.700;7.184;2023-02-15T03:04:13;34.10;;;28.10;;
7398;SDS011;3740;50.700;7.184;2023-02-15T03:06:46;34.63;;;27.83;;
7398;SDS011;3740;50.700;7.184;2023-02-15T03:09:36;33.53;;;27.43;;
7398;SDS011;3740;50.700;7.184;2023-02-15T03:12:10;32.10;;;27.30;;
7398;SDS011;3740;50.700;7.184;2023-02-15T03:14:36;33.63;;;28.00;;
7398;SDS011;3740;50.700;7.184;2023-02-15T03:17:03;33.97;;;27.93;;
7398;SDS011;3740;50.700;7.184;2023-02-15T03:19:32;32.93;;;27.47;;
7398;SDS011;3740;50.700;7.184;2023-02-15T03:22:01;31.60;;;25.80;;
7398;SDS011;3740;50.700;7.184;2023-02-15T03:25:17;33.80;;;28.60;;
7398;SDS011;3740;50.700;7.184;2023-02-15T03:27:24;32.70;;;26.20;;
7398;SDS011;3740;50.700;7.184;2023-02-15T03:29:53;31.50;;;26.57;;
7398;SDS011;3740;50.700;7.184;2023-02-15T03:32:22;31.53;;;26.03;;
7398;SDS011;3740;50.700;7.184;2023-02-15T03:34:50;32.27;;;25.97;;
7398;SDS011;3740;50.700;7.184;2023-02-15T03:37:25;31.00;;;26.67;;
7398;SDS011;3740;50.700;7.184;2023-02-15T03:40:03;30.07;;;25.40;;
7398;SDS011;3740;50.700;7.184;2023-02-15T03:43:01;32.73;;;26.10;;
7398;SDS011;3740;50.700;7.184;2023-02-15T03:45:45;32.53;;;25.60;;
7398;SDS011;3740;50.700;7.184;2023-02-15T03:48:27;30.90;;;25.63;;
7398;SDS011;3740;50.700;7.184;2023-02-15T03:51:00;30.60;;;25.20;;
7398;SDS011;3740;50.700;7.184;2023-02-15T03:53:48;28.13;;;23.87;;
7398;SDS011;3740;50.700;7.184;2023-02-15T03:56:15;28.90;;;24.87;;
7398;SDS011;3740;50.700;7.184;2023-02-15T03:58:40;30.37;;;24.23;;
7398;SDS011;3740;50.700;7.184;2023-02-15T04:01:26;29.27;;;24.93;;
7398;SDS011;3740;50.700;7.184;2023-02-15T04:04:19;30.10;;;25.27;;
7398;SDS011;3740;50.700;7.184;2023-02-15T04:06:47;28.00;;;24.10;;
7398;SDS011;3740;50.700;7.184;2023-02-15T04:09:13;28.97;;;24.80;;
7398;SDS011;3740;50.700;7.184;2023-02-15T04:11:57;29.00;;;25.53;;
7398;SDS011;3740;50.700;7.184;2023-02-15T04:14:23;28.07;;;23.60;;
7398;SDS011;3740;50.700;7.184;2023-02-15T04:17:08;31.97;;;24.13;;
7398;SDS011;3740;50.700;7.184;2023-02-15T04:19:34;30.57;;;24.90;;
7398;SDS011;3740;50.700;7.184;2023-02-15T04:22:19;27.67;;;24.70;;
7398;SDS011;3740;50.700;7.184;2023-02-15T04:25:03;28.00;;;24.73;;
7398;SDS011;3740;50.700;7.184;2023-02-15T04:27:38;31.17;;;24.23;;
7398;SDS011;3740;50.700;7.184;2023-02-15T04:30:08;28.93;;;24.53;;
7398;SDS011;3740;50.700;7.184;2023-02-15T04:32:35;27.10;;;23.87;;
7398;SDS011;3740;50.700;7.184;2023-02-15T04:35:01;30.23;;;25.13;;
7398;SDS011;3740;50.700;7.184;2023-02-15T04:37:27;26.83;;;23.47;;
7398;SDS011;3740;50.700;7.184;2023-02-15T04:39:53;26.77;;;22.83;;
7398;SDS011;3740;50.700;7.184;2023-02-15T04:44:46;26.30;;;23.37;;
7398;SDS011;3740;50.700;7.184;2023-02-15T04:47:12;29.23;;;24.67;;
7398;SDS011;3740;50.700;7.184;2023-02-15T04:49:37;29.00;;;23.60;;
7398;SDS011;3740;50.700;7.184;2023-02-15T04:52:03;28.73;;;24.10;;
7398;SDS011;3740;50.700;7.184;2023-02-15T04:54:28;25.20;;;21.87;;
7398;SDS011;3740;50.700;7.184;2023-02-15T04:56:54;28.43;;;23.27;;
7398;SDS011;3740;50.700;7.184;2023-02-15T04:59:20;29.00;;;24.50;;
7398;SDS011;3740;50.700;7.184;2023-02-15T05:01:45;29.33;;;23.23;;
7398;SDS011;3740;50.700;7.184;2023-02-15T05:04:11;27.33;;;22.83;;
7398;SDS011;3740;50.700;7.184;2023-02-15T05:06:36;28.27;;;22.93;;
7398;SDS011;3740;50.700;7.184;2023-02-15T05:09:02;25.93;;;22.93;;
7398;SDS011;3740;50.700;7.184;2023-02-15T05:11:28;28.17;;;23.37;;
7398;SDS011;3740;50.700;7.184;2023-02-15T05:13:53;27.63;;;23.80;;
7398;SDS011;3740;50.700;7.184;2023-02-15T05:16:19;26.73;;;23.00;;
7398;SDS011;3740;50.700;7.184;2023-02-15T05:18:45;28.83;;;24.30;;
7398;SDS011;3740;50.700;7.184;2023-02-15T05:21:10;25.53;;;21.97;;
7398;SDS011;3740;50.700;7.184;2023-02-15T05:23:36;27.20;;;22.20;;
7398;SDS011;3740;50.700;7.184;2023-02-15T05:26:01;26.50;;;22.07;;
7398;SDS011;3740;50.700;7.184;2023-02-15T05:28:46;26.20;;;22.13;;
7398;SDS011;3740;50.700;7.184;2023-02-15T05:31:18;24.47;;;21.30;;
7398;SDS011;3740;50.700;7.184;2023-02-15T05:33:44;25.10;;;22.33;;
7398;SDS011;3740;50.700;7.184;2023-02-15T05:36:10;26.67;;;21.13;;
7398;SDS011;3740;50.700;7.184;2023-02-15T05:38:36;24.73;;;21.07;;
7398;SDS011;3740;50.700;7.184;2023-02-15T05:41:06;24.63;;;21.43;;
7398;SDS011;3740;50.700;7.184;2023-02-15T05:43:32;26.53;;;22.03;;
7398;SDS011;3740;50.700;7.184;2023-02-15T05:45:59;26.03;;;22.37;;
7398;SDS011;3740;50.700;7.184;2023-02-15T05:48:25;24.13;;;21.13;;
7398;SDS011;3740;50.700;7.184;2023-02-15T05:51:08;24.70;;;21.20;;
7398;SDS011;3740;50.700;7.184;2023-02-15T05:53:36;23.67;;;21.17;;
7398;SDS011;3740;50.700;7.184;2023-02-15T05:56:04;23.70;;;20.77;;
7398;SDS011;3740;50.700;7.184;2023-02-15T05:58:32;23.93;;;20.37;;
7398;SDS011;3740;50.700;7.184;2023-02-15T06:01:09;23.47;;;20.83;;
7398;SDS011;3740;50.700;7.184;2023-02-15T06:03:39;24.20;;;20.87;;
7398;SDS011;3740;50.700;7.184;2023-02-15T06:06:06;23.33;;;20.17;;
7398;SDS011;3740;50.700;7.184;2023-02-15T06:08:32;23.10;;;20.63;;
7398;SDS011;3740;50.700;7.184;2023-02-15T06:10:58;23.07;;;20.57;;
7398;SDS011;3740;50.700;7.184;2023-02-15T06:13:24;24.00;;;20.90;;
7398;SDS011;3740;50.700;7.184;2023-02-15T06:15:50;24.47;;;20.70;;
7398;SDS011;3740;50.700;7.184;2023-02-15T06:18:16;25.33;;;21.60;;
7398;SDS011;3740;50.700;7.184;2023-02-15T06:20:41;25.80;;;21.37;;
7398;SDS011;3740;50.700;7.184;2023-02-15T06:23:07;23.67;;;20.23;;
7398;SDS011;3740;50.700;7.184;2023-02-15T06:25:32;23.33;;;20.47;;
7398;SDS011;3740;50.700;7.184;2023-02-15T06:27:58;23.93;;;20.37;;
7398;SDS011;3740;50.700;7.184;2023-02-15T06:30:24;23.77;;;19.90;;
7398;SDS011;3740;50.700;7.184;2023-02-15T06:32:49;23.37;;;20.50;;
7398;SDS011;3740;50.700;7.184;2023-02-15T06:35:15;25.70;;;21.70;;
7398;SDS011;3740;50.700;7.184;2023-02-15T06:37:40;24.30;;;20.93;;
7398;SDS011;3740;50.700;7.184;2023-02-15T06:40:06;24.53;;;20.90;;
7398;SDS011;3740;50.700;7.184;2023-02-15T06:42:33;23.47;;;20.87;;
7398;SDS011;3740;50.700;7.184;2023-02-15T06:44:58;23.63;;;20.17;;
7398;SDS011;3740;50.700;7.184;2023-02-15T06:47:25;24.33;;;20.33;;
7398;SDS011;3740;50.700;7.184;2023-02-15T06:49:50;23.90;;;20.17;;
7398;SDS011;3740;50.700;7.184;2023-02-15T06:52:16;23.03;;;20.53;;
7398;SDS011;3740;50.700;7.184;2023-02-15T06:54:41;22.73;;;19.60;;
7398;SDS011;3740;50.700;7.184;2023-02-15T06:57:07;20.93;;;18.73;;
7398;SDS011;3740;50.700;7.184;2023-02-15T06:59:34;23.70;;;20.30;;
7398;SDS011;3740;50.700;7.184;2023-02-15T07:02:00;23.63;;;19.77;;
7398;SDS011;3740;50.700;7.184;2023-02-15T07:04:25;23.67;;;20.27;;
7398;SDS011;3740;50.700;7.184;2023-02-15T07:06:53;22.87;;;19.77;;
7398;SDS011;3740;50.700;7.184;2023-02-15T07:09:19;23.70;;;19.70;;
7398;SDS011;3740;50.700;7.184;2023-02-15T07:11:45;22.03;;;19.43;;
7398;SDS011;3740;50.700;7.184;2023-02-15T07:14:29;22.63;;;20.17;;
7398;SDS011;3740;50.700;7.184;2023-02-15T07:16:55;22.20;;;19.80;;
7398;SDS011;3740;50.700;7.184;2023-02-15T07:19:20;22.97;;;20.03;;
7398;SDS011;3740;50.700;7.184;2023-02-15T07:21:46;23.40;;;19.43;;
7398;SDS011;3740;50.700;7.184;2023-02-15T07:24:12;22.17;;;19.47;;
7398;SDS011;3740;50.700;7.184;2023-02-15T07:26:37;21.40;;;19.10;;
7398;SDS011;3740;50.700;7.184;2023-02-15T07:29:03;21.53;;;18.30;;
7398;SDS011;3740;50.700;7.184;2023-02-15T07:31:28;21.80;;;19.03;;
7398;SDS011;3740;50.700;7.184;2023-02-15T07:33:54;22.97;;;19.67;;
7398;SDS011;3740;50.700;7.184;2023-02-15T07:36:20;23.67;;;20.03;;
7398;SDS011;3740;50.700;7.184;2023-02-15T07:38:45;21.63;;;19.33;;
7398;SDS011;3740;50.700;7.184;2023-02-15T07:41:13;22.07;;;18.80;;
7398;SDS011;3740;50.700;7.184;2023-02-15T07:43:40;21.77;;;18.93;;
7398;SDS011;3740;50.700;7.184;2023-02-15T07:46:09;21.83;;;19.40;;
7398;SDS011;3740;50.700;7.184;2023-02-15T07:48:36;21.70;;;18.37;;
7398;SDS011;3740;50.700;7.184;2023-02-15T07:51:04;23.00;;;19.00;;
7398;SDS011;3740;50.700;7.184;2023-02-15T07:53:32;21.50;;;18.23;;
7398;SDS011;3740;50.700;7.184;2023-02-15T07:56:02;21.80;;;19.50;;
7398;SDS011;3740;50.700;7.184;2023-02-15T07:58:38;21.50;;;18.90;;
7398;SDS011;3740;50.700;7.184;2023-02-15T08:01:16;20.87;;;17.53;;
7398;SDS011;3740;50.700;7.184;2023-02-15T08:03:48;19.80;;;17.60;;
7398;SDS011;3740;50.700;7.184;2023-02-15T08:06:13;21.03;;;18.57;;
7398;SDS011;3740;50.700;7.184;2023-02-15T08:08:40;21.43;;;19.13;;
7398;SDS011;3740;50.700;7.184;2023-02-15T08:11:07;21.27;;;18.97;;
7398;SDS011;3740;50.700;7.184;2023-02-15T08:14:05;21.30;;;18.77;;
7398;SDS011;3740;50.700;7.184;2023-02-15T08:19:08;21.53;;;19.07;;
7398;SDS011;3740;50.700;7.184;2023-02-15T08:21:45;23.07;;;19.43;;
7398;SDS011;3740;50.700;7.184;2023-02-15T08:24:17;21.20;;;18.73;;
7398;SDS011;3740;50.700;7.184;2023-02-15T08:26:45;23.87;;;19.13;;
7398;SDS011;3740;50.700;7.184;2023-02-15T08:29:12;21.20;;;18.93;;
7398;SDS011;3740;50.700;7.184;2023-02-15T08:31:38;21.27;;;18.43;;
7398;SDS011;3740;50.700;7.184;2023-02-15T08:34:06;20.93;;;18.63;;
7398;SDS011;3740;50.700;7.184;2023-02-15T08:36:33;22.33;;;18.70;;
7398;SDS011;3740;50.700;7.184;2023-02-15T08:38:59;22.33;;;19.57;;
7398;SDS011;3740;50.700;7.184;2023-02-15T08:41:27;22.73;;;19.17;;
7398;SDS011;3740;50.700;7.184;2023-02-15T08:43:55;22.13;;;19.37;;
7398;SDS011;3740;50.700;7.184;2023-02-15T08:46:22;22.70;;;18.93;;
7398;SDS011;3740;50.700;7.184;2023-02-15T08:48:49;22.50;;;19.33;;
7398;SDS011;3740;50.700;7.184;2023-02-15T08:51:22;22.63;;;18.60;;
7398;SDS011;3740;50.700;7.184;2023-02-15T08:53:51;21.83;;;19.40;;
7398;SDS011;3740;50.700;7.184;2023-02-15T08:56:19;20.60;;;17.90;;
7398;SDS011;3740;50.700;7.184;2023-02-15T08:58:46;23.50;;;19.87;;
7398;SDS011;3740;50.700;7.184;2023-02-15T09:01:13;22.53;;;19.70;;
7398;SDS011;3740;50.700;7.184;2023-02-15T09:03:43;23.30;;;19.60;;
7398;SDS011;3740;50.700;7.184;2023-02-15T09:06:12;22.67;;;18.77;;
7398;SDS011;3740;50.700;7.184;2023-02-15T09:08:39;20.87;;;17.57;;
7398;SDS011;3740;50.700;7.184;2023-02-15T09:11:05;20.03;;;17.80;;
7398;SDS011;3740;50.700;7.184;2023-02-15T09:13:32;20.37;;;18.17;;
7398;SDS011;3740;50.700;7.184;2023-02-15T09:16:02;19.23;;;17.20;;
7398;SDS011;3740;50.700;7.184;2023-02-15T09:18:33;20.23;;;18.13;;
7398;SDS011;3740;50.700;7.184;2023-02-15T09:21:15;20.57;;;17.43;;
7398;SDS011;3740;50.700;7.184;2023-02-15T09:23:43;23.20;;;19.07;;
7398;SDS011;3740;50.700;7.184;2023-02-15T09:26:11;21.80;;;17.90;;
7398;SDS011;3740;50.700;7.184;2023-02-15T09:28:38;19.97;;;17.17;;
7398;SDS011;3740;50.700;7.184;2023-02-15T09:31:05;21.60;;;18.43;;
7398;SDS011;3740;50.700;7.184;2023-02-15T09:33:32;21.73;;;17.47;;
7398;SDS011;3740;50.700;7.184;2023-02-15T09:35:59;21.23;;;17.83;;
7398;SDS011;3740;50.700;7.184;2023-02-15T09:38:25;19.40;;;17.27;;
7398;SDS011;3740;50.700;7.184;2023-02-15T09:40:55;20.97;;;17.37;;
7398;SDS011;3740;50.700;7.184;2023-02-15T09:49:11;20.10;;;17.73;;
7398;SDS011;3740;50.700;7.184;2023-02-15T09:54:36;20.17;;;18.00;;
7398;SDS011;3740;50.700;7.184;2023-02-15T10:00:02;20.80;;;17.33;;
7398;SDS011;3740;50.700;7.184;2023-02-15T10:05:25;20.93;;;17.80;;
7398;SDS011;3740;50.700;7.184;2023-02-15T10:14:17;20.17;;;17.73;;
7398;SDS011;3740;50.700;7.184;2023-02-15T10:16:56;20.17;;;17.30;;
7398;SDS011;3740;50.700;7.184;2023-02-15T10:19:41;18.53;;;16.57;;
7398;SDS011;3740;50.700;7.184;2023-02-15T10:28:08;15.47;;;13.87;;
7398;SDS011;3740;50.700;7.184;2023-02-15T10:30:48;14.40;;;13.00;;
7398;SDS011;3740;50.700;7.184;2023-02-15T10:33:25;15.82;;;14.23;;
7398;SDS011;3740;50.700;7.184;2023-02-15T10:36:26;14.80;;;11.60;;
7398;SDS011;3740;50.700;7.184;2023-02-15T10:39:04;13.23;;;11.85;;
7398;SDS011;3740;50.700;7.184;2023-02-15T10:44:24;15.02;;;13.57;;
7398;SDS011;3740;50.700;7.184;2023-02-15T11:00:45;14.35;;;12.55;;
7398;SDS011;3740;50.700;7.184;2023-02-15T11:06:08;14.18;;;12.77;;
7398;SDS011;3740;50.700;7.184;2023-02-15T11:08:39;12.35;;;11.15;;
7398;SDS011;3740;50.700;7.184;2023-02-15T11:11:20;13.35;;;11.98;;
7398;SDS011;3740;50.700;7.184;2023-02-15T11:13:50;13.52;;;12.18;;
7398;SDS011;3740;50.700;7.184;2023-02-15T11:16:23;13.80;;;12.60;;
7398;SDS011;3740;50.700;7.184;2023-02-15T11:19:11;14.90;;;13.50;;
7398;SDS011;3740;50.700;7.184;2023-02-15T11:21:48;13.30;;;12.07;;
7398;SDS011;3740;50.700;7.184;2023-02-15T11:24:19;13.68;;;12.40;;
7398;SDS011;3740;50.700;7.184;2023-02-15T11:26:46;14.32;;;13.00;;
7398;SDS011;3740;50.700;7.184;2023-02-15T11:29:31;15.13;;;13.18;;
7398;SDS011;3740;50.700;7.184;2023-02-15T11:32:12;15.05;;;13.65;;
7398;SDS011;3740;50.700;7.184;2023-02-15T11:34:50;13.57;;;12.18;;
7398;SDS011;3740;50.700;7.184;2023-02-15T11:37:18;14.20;;;12.90;;
7398;SDS011;3740;50.700;7.184;2023-02-15T11:39:46;12.63;;;11.43;;
7398;SDS011;3740;50.700;7.184;2023-02-15T11:42:17;12.45;;;11.32;;
7398;SDS011;3740;50.700;7.184;2023-02-15T11:47:51;12.88;;;11.57;;
7398;SDS011;3740;50.700;7.184;2023-02-15T11:50:20;12.88;;;11.77;;
7398;SDS011;3740;50.700;7.184;2023-02-15T11:52:49;13.98;;;12.57;;
7398;SDS011;3740;50.700;7.184;2023-02-15T11:55:18;13.70;;;12.30;;
7398;SDS011;3740;50.700;7.184;2023-02-15T12:00:47;13.65;;;12.35;;
7398;SDS011;3740;50.700;7.184;2023-02-15T12:03:21;13.50;;;12.30;;
7398;SDS011;3740;50.700;7.184;2023-02-15T12:06:02;14.57;;;13.07;;
7398;SDS011;3740;50.700;7.184;2023-02-15T12:08:37;13.48;;;12.07;;
7398;SDS011;3740;50.700;7.184;2023-02-15T12:11:08;14.02;;;12.63;;
7398;SDS011;3740;50.700;7.184;2023-02-15T12:13:44;13.68;;;12.38;;
7398;SDS011;3740;50.700;7.184;2023-02-15T12:16:48;13.70;;;12.40;;
7398;SDS011;3740;50.700;7.184;2023-02-15T12:22:21;14.23;;;12.35;;
7398;SDS011;3740;50.700;7.184;2023-02-15T12:24:49;14.38;;;12.40;;
7398;SDS011;3740;50.700;7.184;2023-02-15T12:27:18;13.80;;;12.40;;
7398;SDS011;3740;50.700;7.184;2023-02-15T12:35:21;13.50;;;12.20;;
7398;SDS011;3740;50.700;7.184;2023-02-15T12:40:36;13.85;;;12.43;;
7398;SDS011;3740;50.700;7.184;2023-02-15T12:43:03;14.57;;;13.07;;
7398;SDS011;3740;50.700;7.184;2023-02-15T12:45:34;13.38;;;12.02;;
7398;SDS011;3740;50.700;7.184;2023-02-15T12:48:17;14.30;;;12.90;;
7398;SDS011;3740;50.700;7.184;2023-02-15T12:50:48;13.17;;;11.77;;
7398;SDS011;3740;50.700;7.184;2023-02-15T12:53:31;13.55;;;12.25;;
7398;SDS011;3740;50.700;7.184;2023-02-15T12:56:02;13.90;;;12.00;;
7398;SDS011;3740;50.700;7.184;2023-02-15T12:58:30;15.07;;;12.83;;
7398;SDS011;3740;50.700;7.184;2023-02-15T13:01:18;14.13;;;12.73;;
7398;SDS011;3740;50.700;7.184;2023-02-15T13:06:16;14.43;;;12.93;;
7398;SDS011;3740;50.700;7.184;2023-02-15T13:08:53;13.67;;;12.30;;
7398;SDS011;3740;50.700;7.184;2023-02-15T13:11:24;13.13;;;11.73;;
7398;SDS011;3740;50.700;7.184;2023-02-15T13:14:01;13.60;;;12.20;;
7398;SDS011;3740;50.700;7.184;2023-02-15T13:16:32;13.23;;;11.93;;
7398;SDS011;3740;50.700;7.184;2023-02-15T13:19:22;14.17;;;12.80;;
7398;SDS011;3740;50.700;7.184;2023-02-15T13:21:53;13.03;;;11.83;;
7398;SDS011;3740;50.700;7.184;2023-02-15T13:24:22;14.48;;;12.98;;
7398;SDS011;3740;50.700;7.184;2023-02-15T13:26:48;13.20;;;11.80;;
7398;SDS011;3740;50.700;7.184;2023-02-15T13:29:18;13.50;;;12.10;;
7398;SDS011;3740;50.700;7.184;2023-02-15T13:31:49;13.67;;;12.37;;
7398;SDS011;3740;50.700;7.184;2023-02-15T13:34:17;14.00;;;12.50;;
7398;SDS011;3740;50.700;7.184;2023-02-15T13:37:01;13.97;;;12.40;;
7398;SDS011;3740;50.700;7.184;2023-02-15T13:50:20;14.17;;;12.60;;
7398;SDS011;3740;50.700;7.184;2023-02-15T14:06:28;12.47;;;11.27;;
7398;SDS011;3740;50.700;7.184;2023-02-15T14:09:28;13.73;;;12.30;;
7398;SDS011;3740;50.700;7.184;2023-02-15T14:15:08;13.10;;;11.90;;
7398;SDS011;3740;50.700;7.184;2023-02-15T14:20:39;14.73;;;12.33;;
7398;SDS011;3740;50.700;7.184;2023-02-15T14:26:11;12.97;;;11.67;;
7398;SDS011;3740;50.700;7.184;2023-02-15T14:31:14;13.57;;;12.17;;
7398;SDS011;3740;50.700;7.184;2023-02-15T14:33:47;13.10;;;11.80;;
7398;SDS011;3740;50.700;7.184;2023-02-15T14:36:19;15.53;;;12.47;;
7398;SDS011;3740;50.700;7.184;2023-02-15T14:38:54;12.87;;;11.60;;
7398;SDS011;3740;50.700;7.184;2023-02-15T14:41:53;13.50;;;12.20;;
7398;SDS011;3740;50.700;7.184;2023-02-15T14:44:33;13.13;;;11.83;;
7398;SDS011;3740;50.700;7.184;2023-02-15T14:47:19;13.27;;;11.87;;
7398;SDS011;3740;50.700;7.184;2023-02-15T14:49:50;13.40;;;11.80;;
7398;SDS011;3740;50.700;7.184;2023-02-15T14:52:15;13.77;;;12.37;;
7398;SDS011;3740;50.700;7.184;2023-02-15T15:02:40;14.97;;;13.37;;
7398;SDS011;3740;50.700;7.184;2023-02-15T15:05:20;13.63;;;12.23;;
7398;SDS011;3740;50.700;7.184;2023-02-15T15:07:50;14.07;;;12.57;;
7398;SDS011;3740;50.700;7.184;2023-02-15T15:12:46;15.53;;;13.30;;
7398;SDS011;3740;50.700;7.184;2023-02-15T15:18:42;13.87;;;12.47;;
7398;SDS011;3740;50.700;7.184;2023-02-15T15:21:03;12.83;;;11.53;;
7398;SDS011;3740;50.700;7.184;2023-02-15T15:23:47;12.73;;;11.50;;
7398;SDS011;3740;50.700;7.184;2023-02-15T15:26:21;14.67;;;12.40;;
7398;SDS011;3740;50.700;7.184;2023-02-15T15:36:40;15.97;;;13.50;;
7398;SDS011;3740;50.700;7.184;2023-02-15T15:50:43;13.80;;;12.30;;
7398;SDS011;3740;50.700;7.184;2023-02-15T15:53:19;13.93;;;12.53;;
7398;SDS011;3740;50.700;7.184;2023-02-15T15:55:47;14.27;;;12.77;;
7398;SDS011;3740;50.700;7.184;2023-02-15T15:58:15;14.13;;;12.60;;
7398;SDS011;3740;50.700;7.184;2023-02-15T16:00:47;13.70;;;12.30;;
7398;SDS011;3740;50.700;7.184;2023-02-15T16:03:20;13.97;;;12.47;;
7398;SDS011;3740;50.700;7.184;2023-02-15T16:05:47;14.53;;;12.33;;
7398;SDS011;3740;50.700;7.184;2023-02-15T16:08:25;13.53;;;12.13;;
7398;SDS011;3740;50.700;7.184;2023-02-15T16:10:56;13.87;;;12.47;;
7398;SDS011;3740;50.700;7.184;2023-02-15T16:13:22;14.03;;;11.77;;
7398;SDS011;3740;50.700;7.184;2023-02-15T16:15:51;13.53;;;12.07;;
7398;SDS011;3740;50.700;7.184;2023-02-15T16:18:21;15.23;;;13.20;;
7398;SDS011;3740;50.700;7.184;2023-02-15T16:20:51;16.53;;;12.67;;
7398;SDS011;3740;50.700;7.184;2023-02-15T16:28:49;13.90;;;12.40;;
7398;SDS011;3740;50.700;7.184;2023-02-15T16:31:16;13.83;;;12.40;;
7398;SDS011;3740;50.700;7.184;2023-02-15T16:33:43;14.00;;;12.57;;
7398;SDS011;3740;50.700;7.184;2023-02-15T16:36:20;15.00;;;13.03;;
7398;SDS011;3740;50.700;7.184;2023-02-15T16:43:47;16.03;;;13.67;;
7398;SDS011;3740;50.700;7.184;2023-02-15T16:46:15;16.53;;;13.70;;
7398;SDS011;3740;50.700;7.184;2023-02-15T16:49:04;15.03;;;13.40;;
7398;SDS011;3740;50.700;7.184;2023-02-15T16:51:55;15.37;;;13.17;;
7398;SDS011;3740;50.700;7.184;2023-02-15T16:54:23;15.13;;;12.50;;
7398;SDS011;3740;50.700;7.184;2023-02-15T16:56:50;15.20;;;13.63;;
7398;SDS011;3740;50.700;7.184;2023-02-15T16:59:19;14.00;;;12.60;;
7398;SDS011;3740;50.700;7.184;2023-02-15T17:01:52;14.63;;;12.47;;
7398;SDS011;3740;50.700;7.184;2023-02-15T17:09:29;12.93;;;11.63;;
7398;SDS011;3740;50.700;7.184;2023-02-15T17:11:55;13.50;;;12.13;;
7398;SDS011;3740;50.700;7.184;2023-02-15T17:14:32;13.30;;;11.90;;
7398;SDS011;3740;50.700;7.184;2023-02-15T17:17:05;13.77;;;12.00;;
7398;SDS011;3740;50.700;7.184;2023-02-15T17:19:47;13.57;;;12.17;;
7398;SDS011;3740;50.700;7.184;2023-02-15T17:22:20;14.60;;;12.73;;
7398;SDS011;3740;50.700;7.184;2023-02-15T17:24:48;13.43;;;12.03;;
7398;SDS011;3740;50.700;7.184;2023-02-15T17:27:23;13.77;;;12.37;;
7398;SDS011;3740;50.700;7.184;2023-02-15T17:29:51;13.37;;;11.97;;
7398;SDS011;3740;50.700;7.184;2023-02-15T17:32:26;13.63;;;12.20;;
7398;SDS011;3740;50.700;7.184;2023-02-15T17:37:44;16.27;;;12.80;;
7398;SDS011;3740;50.700;7.184;2023-02-15T17:42:44;15.93;;;12.90;;
7398;SDS011;3740;50.700;7.184;2023-02-15T17:45:09;13.97;;;12.57;;
7398;SDS011;3740;50.700;7.184;2023-02-15T17:47:35;14.40;;;12.90;;
7398;SDS011;3740;50.700;7.184;2023-02-15T17:50:01;15.37;;;13.30;;
7398;SDS011;3740;50.700;7.184;2023-02-15T17:52:29;14.53;;;12.80;;
7398;SDS011;3740;50.700;7.184;2023-02-15T17:54:58;14.47;;;12.97;;
7398;SDS011;3740;50.700;7.184;2023-02-15T17:57:49;14.57;;;13.07;;
7398;SDS011;3740;50.700;7.184;2023-02-15T18:00:14;16.97;;;14.10;;
7398;SDS011;3740;50.700;7.184;2023-02-15T18:02:59;15.67;;;13.97;;
7398;SDS011;3740;50.700;7.184;2023-02-15T18:05:44;16.10;;;14.13;;
7398;SDS011;3740;50.700;7.184;2023-02-15T18:08:28;15.63;;;13.70;;
7398;SDS011;3740;50.700;7.184;2023-02-15T18:11:12;14.40;;;12.97;;